sensor_id;sensor_type;location;lat;lon;timestamp;temperature;humidity
64874;HTU21D;51367;45.204;38.576;2023-05-07T00:01:56;15.60;74.54
64874;HTU21D;51367;45.204;38.576;2023-05-07T00:04:22;15.57;74.53
64874;HTU21D;51367;45.204;38.576;2023-05-07T00:06:48;15.56;74.06
64874;HTU21D;51367;45.204;38.576;2023-05-07T00:09:14;15.52;74.51
64874;HTU21D;51367;45.204;38.576;2023-05-07T00:11:40;15.48;75.38
64874;HTU21D;51367;45.204;38.576;2023-05-07T00:14:06;15.46;74.51
64874;HTU21D;51367;45.204;38.576;2023-05-07T00:16:32;15.45;74.42
64874;HTU21D;51367;45.204;38.576;2023-05-07T00:18:58;15.42;74.39
64874;HTU21D;51367;45.204;38.576;2023-05-07T00:21:24;15.41;74.17
64874;HTU21D;51367;45.204;38.576;2023-05-07T00:23:53;15.40;74.83
64874;HTU21D;51367;45.204;38.576;2023-05-07T00:26:19;15.34;74.86
64874;HTU21D;51367;45.204;38.576;2023-05-07T00:28:49;15.32;74.98
64874;HTU21D;51367;45.204;38.576;2023-05-07T00:31:15;15.31;74.47
64874;HTU21D;51367;45.204;38.576;2023-05-07T00:33:40;15.28;74.44
64874;HTU21D;51367;45.204;38.576;2023-05-07T00:36:07;15.25;74.80
64874;HTU21D;51367;45.204;38.576;2023-05-07T00:38:32;15.24;74.76
64874;HTU21D;51367;45.204;38.576;2023-05-07T00:40:58;15.22;74.74
64874;HTU21D;51367;45.204;38.576;2023-05-07T00:43:24;15.19;74.73
64874;HTU21D;51367;45.204;38.576;2023-05-07T00:45:51;15.17;74.60
64874;HTU21D;51367;45.204;38.576;2023-05-07T00:48:17;15.17;74.41
64874;HTU21D;51367;45.204;38.576;2023-05-07T00:50:44;15.14;74.55
64874;HTU21D;51367;45.204;38.576;2023-05-07T00:53:11;15.10;75.49
64874;HTU21D;51367;45.204;38.576;2023-05-07T00:55:38;15.10;74.78
64874;HTU21D;51367;45.204;38.576;2023-05-07T00:58:04;15.06;74.77
64874;HTU21D;51367;45.204;38.576;2023-05-07T01:00:30;15.02;74.76
64874;HTU21D;51367;45.204;38.576;2023-05-07T01:02:56;15.00;75.19
64874;HTU21D;51367;45.204;38.576;2023-05-07T01:05:23;14.96;75.12
64874;HTU21D;51367;45.204;38.576;2023-05-07T01:07:51;14.94;75.34
64874;HTU21D;51367;45.204;38.576;2023-05-07T01:10:18;14.91;75.44
64874;HTU21D;51367;45.204;38.576;2023-05-07T01:12:45;14.89;75.52
64874;HTU21D;51367;45.204;38.576;2023-05-07T01:15:12;14.86;75.41
64874;HTU21D;51367;45.204;38.576;2023-05-07T01:17:41;14.85;75.45
64874;HTU21D;51367;45.204;38.576;2023-05-07T01:20:12;14.84;75.35
64874;HTU21D;51367;45.204;38.576;2023-05-07T01:22:40;14.81;75.49
64874;HTU21D;51367;45.204;38.576;2023-05-07T01:25:08;14.80;75.54
64874;HTU21D;51367;45.204;38.576;2023-05-07T01:27:36;14.78;75.61
64874;HTU21D;51367;45.204;38.576;2023-05-07T01:30:05;14.75;75.47
64874;HTU21D;51367;45.204;38.576;2023-05-07T01:32:53;14.75;75.08
64874;HTU21D;51367;45.204;38.576;2023-05-07T01:35:26;14.73;75.39
64874;HTU21D;51367;45.204;38.576;2023-05-07T01:37:54;14.72;75.34
64874;HTU21D;51367;45.204;38.576;2023-05-07T01:40:20;14.70;75.36
64874;HTU21D;51367;45.204;38.576;2023-05-07T01:42:47;14.67;75.28
64874;HTU21D;51367;45.204;38.576;2023-05-07T01:45:14;14.65;75.09
64874;HTU21D;51367;45.204;38.576;2023-05-07T01:47:40;14.63;75.22
64874;HTU21D;51367;45.204;38.576;2023-05-07T01:50:07;14.59;75.34
64874;HTU21D;51367;45.204;38.576;2023-05-07T01:52:34;14.56;75.34
64874;HTU21D;51367;45.204;38.576;2023-05-07T01:55:00;14.53;75.51
64874;HTU21D;51367;45.204;38.576;2023-05-07T01:57:26;14.49;75.50
64874;HTU21D;51367;45.204;38.576;2023-05-07T01:59:52;14.45;75.71
64874;HTU21D;51367;45.204;38.576;2023-05-07T02:02:18;14.42;75.28
64874;HTU21D;51367;45.204;38.576;2023-05-07T02:04:44;14.42;75.19
64874;HTU21D;51367;45.204;38.576;2023-05-07T02:07:12;14.37;75.23
64874;HTU21D;51367;45.204;38.576;2023-05-07T02:09:38;14.37;75.05
64874;HTU21D;51367;45.204;38.576;2023-05-07T02:12:04;14.34;75.13
64874;HTU21D;51367;45.204;38.576;2023-05-07T02:14:30;14.28;75.23
64874;HTU21D;51367;45.204;38.576;2023-05-07T02:16:56;14.28;75.28
64874;HTU21D;51367;45.204;38.576;2023-05-07T02:19:23;14.24;75.01
64874;HTU21D;51367;45.204;38.576;2023-05-07T02:21:49;14.23;74.96
64874;HTU21D;51367;45.204;38.576;2023-05-07T02:24:15;14.20;75.24
64874;HTU21D;51367;45.204;38.576;2023-05-07T02:26:41;14.19;74.96
64874;HTU21D;51367;45.204;38.576;2023-05-07T02:29:07;14.15;75.04
64874;HTU21D;51367;45.204;38.576;2023-05-07T02:31:34;14.12;75.33
64874;HTU21D;51367;45.204;38.576;2023-05-07T02:34:00;14.09;75.16
64874;HTU21D;51367;45.204;38.576;2023-05-07T02:36:26;14.07;75.05
64874;HTU21D;51367;45.204;38.576;2023-05-07T02:39:08;14.05;75.25
64874;HTU21D;51367;45.204;38.576;2023-05-07T02:41:34;14.01;75.50
64874;HTU21D;51367;45.204;38.576;2023-05-07T02:44:00;14.00;75.36
64874;HTU21D;51367;45.204;38.576;2023-05-07T02:46:26;13.97;75.47
64874;HTU21D;51367;45.204;38.576;2023-05-07T02:48:59;13.95;75.66
64874;HTU21D;51367;45.204;38.576;2023-05-07T02:51:26;13.94;75.12
64874;HTU21D;51367;45.204;38.576;2023-05-07T02:53:55;13.90;76.19
64874;HTU21D;51367;45.204;38.576;2023-05-07T02:56:21;13.88;76.22
64874;HTU21D;51367;45.204;38.576;2023-05-07T02:58:47;13.84;75.89
64874;HTU21D;51367;45.204;38.576;2023-05-07T03:01:15;13.83;75.99
64874;HTU21D;51367;45.204;38.576;2023-05-07T03:03:50;13.81;75.85
64874;HTU21D;51367;45.204;38.576;2023-05-07T03:06:16;13.78;75.84
64874;HTU21D;51367;45.204;38.576;2023-05-07T03:08:43;13.79;76.00
64874;HTU21D;51367;45.204;38.576;2023-05-07T03:11:09;13.77;75.62
64874;HTU21D;51367;45.204;38.576;2023-05-07T03:13:35;13.77;75.47
64874;HTU21D;51367;45.204;38.576;2023-05-07T03:16:01;13.76;75.23
64874;HTU21D;51367;45.204;38.576;2023-05-07T03:18:27;13.76;75.44
64874;HTU21D;51367;45.204;38.576;2023-05-07T03:20:53;13.77;75.28
64874;HTU21D;51367;45.204;38.576;2023-05-07T03:23:19;13.76;75.08
64874;HTU21D;51367;45.204;38.576;2023-05-07T03:25:45;13.77;75.26
64874;HTU21D;51367;45.204;38.576;2023-05-07T03:28:11;13.78;74.84
64874;HTU21D;51367;45.204;38.576;2023-05-07T03:30:43;13.80;75.01
64874;HTU21D;51367;45.204;38.576;2023-05-07T03:33:09;13.79;75.22
64874;HTU21D;51367;45.204;38.576;2023-05-07T03:35:35;13.77;74.99
64874;HTU21D;51367;45.204;38.576;2023-05-07T03:38:01;13.75;75.28
64874;HTU21D;51367;45.204;38.576;2023-05-07T03:40:30;13.70;75.37
64874;HTU21D;51367;45.204;38.576;2023-05-07T03:42:56;13.69;75.24
64874;HTU21D;51367;45.204;38.576;2023-05-07T03:45:25;13.67;75.03
64874;HTU21D;51367;45.204;38.576;2023-05-07T03:48:01;13.68;74.85
64874;HTU21D;51367;45.204;38.576;2023-05-07T03:50:27;13.68;74.83
64874;HTU21D;51367;45.204;38.576;2023-05-07T03:52:53;13.68;74.96
64874;HTU21D;51367;45.204;38.576;2023-05-07T03:55:21;13.68;74.79
64874;HTU21D;51367;45.204;38.576;2023-05-07T03:57:52;13.68;74.60
64874;HTU21D;51367;45.204;38.576;2023-05-07T04:00:19;13.68;74.77
64874;HTU21D;51367;45.204;38.576;2023-05-07T04:02:48;13.69;74.95
64874;HTU21D;51367;45.204;38.576;2023-05-07T04:05:19;13.68;74.79
64874;HTU21D;51367;45.204;38.576;2023-05-07T04:07:48;13.69;74.67
64874;HTU21D;51367;45.204;38.576;2023-05-07T04:10:18;13.69;75.05
64874;HTU21D;51367;45.204;38.576;2023-05-07T04:12:46;13.69;74.64
64874;HTU21D;51367;45.204;38.576;2023-05-07T04:15:17;13.69;75.02
64874;HTU21D;51367;45.204;38.576;2023-05-07T04:17:43;13.66;75.11
64874;HTU21D;51367;45.204;38.576;2023-05-07T04:20:14;13.63;74.83
64874;HTU21D;51367;45.204;38.576;2023-05-07T04:22:41;13.61;75.01
64874;HTU21D;51367;45.204;38.576;2023-05-07T04:25:08;13.59;74.99
64874;HTU21D;51367;45.204;38.576;2023-05-07T04:27:37;13.59;74.89
64874;HTU21D;51367;45.204;38.576;2023-05-07T04:30:04;13.60;74.61
64874;HTU21D;51367;45.204;38.576;2023-05-07T04:32:35;13.61;74.77
64874;HTU21D;51367;45.204;38.576;2023-05-07T04:35:04;13.62;74.49
64874;HTU21D;51367;45.204;38.576;2023-05-07T04:37:32;13.63;74.62
64874;HTU21D;51367;45.204;38.576;2023-05-07T04:39:58;13.64;74.46
64874;HTU21D;51367;45.204;38.576;2023-05-07T04:42:25;13.62;74.57
64874;HTU21D;51367;45.204;38.576;2023-05-07T04:44:53;13.64;74.31
64874;HTU21D;51367;45.204;38.576;2023-05-07T04:47:20;13.63;74.43
64874;HTU21D;51367;45.204;38.576;2023-05-07T04:49:46;13.64;74.17
64874;HTU21D;51367;45.204;38.576;2023-05-07T04:52:12;13.65;74.31
64874;HTU21D;51367;45.204;38.576;2023-05-07T04:54:38;13.65;74.42
64874;HTU21D;51367;45.204;38.576;2023-05-07T04:57:06;13.65;74.38
64874;HTU21D;51367;45.204;38.576;2023-05-07T04:59:33;13.64;74.41
64874;HTU21D;51367;45.204;38.576;2023-05-07T05:01:59;13.62;74.52
64874;HTU21D;51367;45.204;38.576;2023-05-07T05:04:25;13.58;74.44
64874;HTU21D;51367;45.204;38.576;2023-05-07T05:06:52;13.55;74.35
64874;HTU21D;51367;45.204;38.576;2023-05-07T05:09:18;13.56;74.60
64874;HTU21D;51367;45.204;38.576;2023-05-07T05:11:45;13.54;74.38
64874;HTU21D;51367;45.204;38.576;2023-05-07T05:14:11;13.53;74.21
64874;HTU21D;51367;45.204;38.576;2023-05-07T05:16:37;13.53;74.16
64874;HTU21D;51367;45.204;38.576;2023-05-07T05:19:02;13.50;74.38
64874;HTU21D;51367;45.204;38.576;2023-05-07T05:21:31;13.52;74.15
64874;HTU21D;51367;45.204;38.576;2023-05-07T05:24:03;13.51;74.15
64874;HTU21D;51367;45.204;38.576;2023-05-07T05:26:29;13.54;74.02
64874;HTU21D;51367;45.204;38.576;2023-05-07T05:28:56;13.54;73.96
64874;HTU21D;51367;45.204;38.576;2023-05-07T05:31:24;13.58;74.13
64874;HTU21D;51367;45.204;38.576;2023-05-07T05:33:50;13.59;74.15
64874;HTU21D;51367;45.204;38.576;2023-05-07T05:36:17;13.62;73.93
64874;HTU21D;51367;45.204;38.576;2023-05-07T05:38:45;13.65;73.96
64874;HTU21D;51367;45.204;38.576;2023-05-07T05:41:12;13.71;73.85
64874;HTU21D;51367;45.204;38.576;2023-05-07T05:43:37;13.75;74.06
64874;HTU21D;51367;45.204;38.576;2023-05-07T05:46:03;13.78;73.83
64874;HTU21D;51367;45.204;38.576;2023-05-07T05:48:33;13.81;73.91
64874;HTU21D;51367;45.204;38.576;2023-05-07T05:51:01;13.86;74.00
64874;HTU21D;51367;45.204;38.576;2023-05-07T05:53:28;13.89;73.70
64874;HTU21D;51367;45.204;38.576;2023-05-07T05:55:54;13.93;73.59
64874;HTU21D;51367;45.204;38.576;2023-05-07T05:58:20;13.98;73.86
64874;HTU21D;51367;45.204;38.576;2023-05-07T06:00:52;14.04;73.54
64874;HTU21D;51367;45.204;38.576;2023-05-07T06:03:21;14.09;73.53
64874;HTU21D;51367;45.204;38.576;2023-05-07T06:05:48;14.14;73.52
64874;HTU21D;51367;45.204;38.576;2023-05-07T06:08:14;14.18;73.64
64874;HTU21D;51367;45.204;38.576;2023-05-07T06:10:40;14.20;73.89
64874;HTU21D;51367;45.204;38.576;2023-05-07T06:13:07;14.22;74.11
64874;HTU21D;51367;45.204;38.576;2023-05-07T06:15:36;14.24;73.98
64874;HTU21D;51367;45.204;38.576;2023-05-07T06:18:07;14.30;74.25
64874;HTU21D;51367;45.204;38.576;2023-05-07T06:20:33;14.37;74.25
64874;HTU21D;51367;45.204;38.576;2023-05-07T06:23:02;14.45;74.28
64874;HTU21D;51367;45.204;38.576;2023-05-07T06:25:30;14.55;74.17
64874;HTU21D;51367;45.204;38.576;2023-05-07T06:27:56;14.63;74.13
64874;HTU21D;51367;45.204;38.576;2023-05-07T06:30:24;14.68;74.02
64874;HTU21D;51367;45.204;38.576;2023-05-07T06:32:50;14.82;74.02
64874;HTU21D;51367;45.204;38.576;2023-05-07T06:35:17;14.95;73.87
64874;HTU21D;51367;45.204;38.576;2023-05-07T06:37:43;15.06;73.51
64874;HTU21D;51367;45.204;38.576;2023-05-07T06:40:14;15.13;73.28
64874;HTU21D;51367;45.204;38.576;2023-05-07T06:42:41;15.24;73.35
64874;HTU21D;51367;45.204;38.576;2023-05-07T06:45:33;15.45;73.15
64874;HTU21D;51367;45.204;38.576;2023-05-07T06:47:59;15.68;72.86
64874;HTU21D;51367;45.204;38.576;2023-05-07T06:50:26;15.88;72.32
64874;HTU21D;51367;45.204;38.576;2023-05-07T06:52:56;15.99;71.91
64874;HTU21D;51367;45.204;38.576;2023-05-07T06:55:21;15.99;71.68
64874;HTU21D;51367;45.204;38.576;2023-05-07T06:57:48;15.92;71.43
64874;HTU21D;51367;45.204;38.576;2023-05-07T07:00:15;15.86;71.58
64874;HTU21D;51367;45.204;38.576;2023-05-07T07:02:47;15.86;71.82
64874;HTU21D;51367;45.204;38.576;2023-05-07T07:05:16;15.86;71.56
64874;HTU21D;51367;45.204;38.576;2023-05-07T07:07:42;15.77;71.65
64874;HTU21D;51367;45.204;38.576;2023-05-07T07:10:09;15.80;71.80
64874;HTU21D;51367;45.204;38.576;2023-05-07T07:12:35;15.82;71.87
64874;HTU21D;51367;45.204;38.576;2023-05-07T07:15:02;15.91;71.92
64874;HTU21D;51367;45.204;38.576;2023-05-07T07:17:28;15.96;71.58
64874;HTU21D;51367;45.204;38.576;2023-05-07T07:19:54;15.96;71.71
64874;HTU21D;51367;45.204;38.576;2023-05-07T07:22:20;15.93;71.67
64874;HTU21D;51367;45.204;38.576;2023-05-07T07:24:47;15.93;71.76
64874;HTU21D;51367;45.204;38.576;2023-05-07T07:27:15;15.91;71.62
64874;HTU21D;51367;45.204;38.576;2023-05-07T07:29:41;15.97;71.77
64874;HTU21D;51367;45.204;38.576;2023-05-07T07:32:07;16.04;71.69
64874;HTU21D;51367;45.204;38.576;2023-05-07T07:34:34;16.06;71.68
64874;HTU21D;51367;45.204;38.576;2023-05-07T07:37:01;16.08;71.70
64874;HTU21D;51367;45.204;38.576;2023-05-07T07:39:32;16.15;71.67
64874;HTU21D;51367;45.204;38.576;2023-05-07T07:41:59;16.22;71.52
64874;HTU21D;51367;45.204;38.576;2023-05-07T07:44:28;16.35;71.46
64874;HTU21D;51367;45.204;38.576;2023-05-07T07:46:58;16.45;71.29
64874;HTU21D;51367;45.204;38.576;2023-05-07T07:49:26;16.50;71.12
64874;HTU21D;51367;45.204;38.576;2023-05-07T07:51:52;16.57;71.04
64874;HTU21D;51367;45.204;38.576;2023-05-07T07:54:18;16.67;70.91
64874;HTU21D;51367;45.204;38.576;2023-05-07T07:56:44;16.77;70.67
64874;HTU21D;51367;45.204;38.576;2023-05-07T07:59:12;16.85;70.59
64874;HTU21D;51367;45.204;38.576;2023-05-07T08:01:40;16.91;70.27
64874;HTU21D;51367;45.204;38.576;2023-05-07T08:04:07;16.91;70.18
64874;HTU21D;51367;45.204;38.576;2023-05-07T08:06:37;16.95;70.26
64874;HTU21D;51367;45.204;38.576;2023-05-07T08:09:03;17.04;70.11
64874;HTU21D;51367;45.204;38.576;2023-05-07T08:11:29;17.06;69.81
64874;HTU21D;51367;45.204;38.576;2023-05-07T08:13:56;17.05;69.88
64874;HTU21D;51367;45.204;38.576;2023-05-07T08:16:22;17.04;69.86
64874;HTU21D;51367;45.204;38.576;2023-05-07T08:18:48;17.03;69.81
64874;HTU21D;51367;45.204;38.576;2023-05-07T08:21:14;17.01;69.87
64874;HTU21D;51367;45.204;38.576;2023-05-07T08:23:40;17.04;70.19
64874;HTU21D;51367;45.204;38.576;2023-05-07T08:26:08;17.08;69.92
64874;HTU21D;51367;45.204;38.576;2023-05-07T08:28:35;17.10;69.89
64874;HTU21D;51367;45.204;38.576;2023-05-07T08:31:01;17.10;69.95
64874;HTU21D;51367;45.204;38.576;2023-05-07T08:33:31;17.10;69.94
64874;HTU21D;51367;45.204;38.576;2023-05-07T08:35:57;17.10;70.26
64874;HTU21D;51367;45.204;38.576;2023-05-07T08:38:23;17.16;70.16
64874;HTU21D;51367;45.204;38.576;2023-05-07T08:40:49;17.17;69.90
64874;HTU21D;51367;45.204;38.576;2023-05-07T08:43:18;17.21;70.03
64874;HTU21D;51367;45.204;38.576;2023-05-07T08:45:45;17.26;69.83
64874;HTU21D;51367;45.204;38.576;2023-05-07T08:48:16;17.39;69.83
64874;HTU21D;51367;45.204;38.576;2023-05-07T08:50:48;17.49;69.58
64874;HTU21D;51367;45.204;38.576;2023-05-07T08:53:16;17.58;69.33
64874;HTU21D;51367;45.204;38.576;2023-05-07T08:55:44;17.63;68.96
64874;HTU21D;51367;45.204;38.576;2023-05-07T08:58:10;17.65;69.14
64874;HTU21D;51367;45.204;38.576;2023-05-07T09:00:39;17.75;69.07
64874;HTU21D;51367;45.204;38.576;2023-05-07T09:03:06;17.81;68.77
64874;HTU21D;51367;45.204;38.576;2023-05-07T09:05:32;17.85;68.62
64874;HTU21D;51367;45.204;38.576;2023-05-07T09:07:59;17.87;68.56
64874;HTU21D;51367;45.204;38.576;2023-05-07T09:10:29;17.90;68.54
64874;HTU21D;51367;45.204;38.576;2023-05-07T09:12:55;17.92;68.33
64874;HTU21D;51367;45.204;38.576;2023-05-07T09:15:21;17.88;68.30
64874;HTU21D;51367;45.204;38.576;2023-05-07T09:17:47;17.85;68.37
64874;HTU21D;51367;45.204;38.576;2023-05-07T09:20:14;17.83;68.31
64874;HTU21D;51367;45.204;38.576;2023-05-07T09:22:39;17.78;68.26
64874;HTU21D;51367;45.204;38.576;2023-05-07T09:25:09;17.72;68.36
64874;HTU21D;51367;45.204;38.576;2023-05-07T09:27:37;17.65;68.57
64874;HTU21D;51367;45.204;38.576;2023-05-07T09:30:06;17.61;68.68
64874;HTU21D;51367;45.204;38.576;2023-05-07T09:32:37;17.62;68.84
64874;HTU21D;51367;45.204;38.576;2023-05-07T09:35:17;17.62;68.91
64874;HTU21D;51367;45.204;38.576;2023-05-07T09:37:45;17.68;69.11
64874;HTU21D;51367;45.204;38.576;2023-05-07T09:42:50;17.65;68.77
64874;HTU21D;51367;45.204;38.576;2023-05-07T09:45:21;17.64;68.74
64874;HTU21D;51367;45.204;38.576;2023-05-07T09:47:48;17.65;68.82
64874;HTU21D;51367;45.204;38.576;2023-05-07T09:50:16;17.64;68.81
64874;HTU21D;51367;45.204;38.576;2023-05-07T09:52:44;17.59;68.68
64874;HTU21D;51367;45.204;38.576;2023-05-07T09:55:11;17.54;68.92
64874;HTU21D;51367;45.204;38.576;2023-05-07T09:57:38;17.51;69.01
64874;HTU21D;51367;45.204;38.576;2023-05-07T10:00:07;17.51;69.05
64874;HTU21D;51367;45.204;38.576;2023-05-07T10:02:51;17.48;69.04
64874;HTU21D;51367;45.204;38.576;2023-05-07T10:05:22;17.43;69.26
64874;HTU21D;51367;45.204;38.576;2023-05-07T10:07:50;17.45;69.67
64874;HTU21D;51367;45.204;38.576;2023-05-07T10:10:17;17.50;69.39
64874;HTU21D;51367;45.204;38.576;2023-05-07T10:12:46;17.54;69.36
64874;HTU21D;51367;45.204;38.576;2023-05-07T10:15:23;17.61;69.29
64874;HTU21D;51367;45.204;38.576;2023-05-07T10:17:53;17.61;69.61
64874;HTU21D;51367;45.204;38.576;2023-05-07T10:20:21;17.62;69.36
64874;HTU21D;51367;45.204;38.576;2023-05-07T10:22:48;17.62;69.36
64874;HTU21D;51367;45.204;38.576;2023-05-07T10:25:23;17.63;69.33
64874;HTU21D;51367;45.204;38.576;2023-05-07T10:27:53;17.63;69.26
64874;HTU21D;51367;45.204;38.576;2023-05-07T10:32:52;17.65;69.43
64874;HTU21D;51367;45.204;38.576;2023-05-07T10:35:32;17.69;69.49
64874;HTU21D;51367;45.204;38.576;2023-05-07T10:38:03;17.67;69.51
64874;HTU21D;51367;45.204;38.576;2023-05-07T10:40:33;17.63;69.59
64874;HTU21D;51367;45.204;38.576;2023-05-07T10:43:02;17.56;69.55
64874;HTU21D;51367;45.204;38.576;2023-05-07T10:45:36;17.53;69.68
64874;HTU21D;51367;45.204;38.576;2023-05-07T10:48:07;17.50;69.74
64874;HTU21D;51367;45.204;38.576;2023-05-07T10:50:37;17.48;69.87
64874;HTU21D;51367;45.204;38.576;2023-05-07T10:55:51;17.37;70.02
64874;HTU21D;51367;45.204;38.576;2023-05-07T11:01:00;17.32;70.09
64874;HTU21D;51367;45.204;38.576;2023-05-07T11:04:13;17.26;70.20
64874;HTU21D;51367;45.204;38.576;2023-05-07T11:06:40;17.19;70.81
64874;HTU21D;51367;45.204;38.576;2023-05-07T11:09:09;17.14;70.76
64874;HTU21D;51367;45.204;38.576;2023-05-07T11:11:52;17.14;70.84
64874;HTU21D;51367;45.204;38.576;2023-05-07T11:17:11;17.17;70.57
64874;HTU21D;51367;45.204;38.576;2023-05-07T11:19:56;17.18;70.58
64874;HTU21D;51367;45.204;38.576;2023-05-07T11:22:42;17.20;70.66
64874;HTU21D;51367;45.204;38.576;2023-05-07T11:25:23;17.21;70.69
64874;HTU21D;51367;45.204;38.576;2023-05-07T11:27:55;17.18;70.75
64874;HTU21D;51367;45.204;38.576;2023-05-07T11:30:24;17.14;70.81
64874;HTU21D;51367;45.204;38.576;2023-05-07T11:32:50;17.09;71.15
64874;HTU21D;51367;45.204;38.576;2023-05-07T11:35:17;16.99;71.27
64874;HTU21D;51367;45.204;38.576;2023-05-07T11:37:45;16.93;71.58
64874;HTU21D;51367;45.204;38.576;2023-05-07T11:40:13;16.88;72.21
64874;HTU21D;51367;45.204;38.576;2023-05-07T11:42:40;16.82;71.96
64874;HTU21D;51367;45.204;38.576;2023-05-07T11:45:09;16.81;72.09
64874;HTU21D;51367;45.204;38.576;2023-05-07T11:47:35;16.79;71.97
64874;HTU21D;51367;45.204;38.576;2023-05-07T11:50:06;16.79;72.02
64874;HTU21D;51367;45.204;38.576;2023-05-07T11:52:33;16.79;72.32
64874;HTU21D;51367;45.204;38.576;2023-05-07T11:55:00;16.80;72.17
64874;HTU21D;51367;45.204;38.576;2023-05-07T11:57:27;16.81;72.07
64874;HTU21D;51367;45.204;38.576;2023-05-07T11:59:54;16.81;72.18
64874;HTU21D;51367;45.204;38.576;2023-05-07T12:02:20;16.84;72.08
64874;HTU21D;51367;45.204;38.576;2023-05-07T12:04:46;16.80;72.35
64874;HTU21D;51367;45.204;38.576;2023-05-07T12:07:13;16.77;72.64
64874;HTU21D;51367;45.204;38.576;2023-05-07T12:09:44;16.76;72.81
64874;HTU21D;51367;45.204;38.576;2023-05-07T12:12:10;16.74;72.85
64874;HTU21D;51367;45.204;38.576;2023-05-07T12:14:39;16.67;73.05
64874;HTU21D;51367;45.204;38.576;2023-05-07T12:17:07;16.63;72.90
64874;HTU21D;51367;45.204;38.576;2023-05-07T12:19:34;16.58;73.43
64874;HTU21D;51367;45.204;38.576;2023-05-07T12:22:02;16.54;73.56
64874;HTU21D;51367;45.204;38.576;2023-05-07T12:24:28;16.46;74.46
64874;HTU21D;51367;45.204;38.576;2023-05-07T12:26:54;16.36;74.47
64874;HTU21D;51367;45.204;38.576;2023-05-07T12:29:23;16.25;74.60
64874;HTU21D;51367;45.204;38.576;2023-05-07T12:31:50;16.16;75.63
64874;HTU21D;51367;45.204;38.576;2023-05-07T12:34:16;16.05;75.41
64874;HTU21D;51367;45.204;38.576;2023-05-07T12:36:42;15.99;76.77
64874;HTU21D;51367;45.204;38.576;2023-05-07T12:39:08;15.90;77.90
64874;HTU21D;51367;45.204;38.576;2023-05-07T12:41:53;15.84;77.66
64874;HTU21D;51367;45.204;38.576;2023-05-07T12:44:23;15.80;77.89
64874;HTU21D;51367;45.204;38.576;2023-05-07T12:46:50;15.75;78.23
64874;HTU21D;51367;45.204;38.576;2023-05-07T12:49:16;15.73;78.26
64874;HTU21D;51367;45.204;38.576;2023-05-07T12:51:43;15.71;78.83
64874;HTU21D;51367;45.204;38.576;2023-05-07T12:54:09;15.74;77.72
64874;HTU21D;51367;45.204;38.576;2023-05-07T12:56:36;15.74;78.91
64874;HTU21D;51367;45.204;38.576;2023-05-07T12:59:02;15.74;78.41
64874;HTU21D;51367;45.204;38.576;2023-05-07T13:01:30;15.73;78.64
64874;HTU21D;51367;45.204;38.576;2023-05-07T13:04:00;15.72;79.09
64874;HTU21D;51367;45.204;38.576;2023-05-07T13:06:26;15.70;79.24
64874;HTU21D;51367;45.204;38.576;2023-05-07T13:08:53;15.71;78.21
64874;HTU21D;51367;45.204;38.576;2023-05-07T13:11:18;15.70;78.37
64874;HTU21D;51367;45.204;38.576;2023-05-07T13:13:44;15.70;78.23
64874;HTU21D;51367;45.204;38.576;2023-05-07T13:16:11;15.67;79.98
64874;HTU21D;51367;45.204;38.576;2023-05-07T13:18:38;15.65;78.84
64874;HTU21D;51367;45.204;38.576;2023-05-07T13:21:05;15.61;79.56
64874;HTU21D;51367;45.204;38.576;2023-05-07T13:23:31;15.58;79.33
64874;HTU21D;51367;45.204;38.576;2023-05-07T13:25:57;15.56;80.20
64874;HTU21D;51367;45.204;38.576;2023-05-07T13:28:23;15.53;80.07
64874;HTU21D;51367;45.204;38.576;2023-05-07T13:30:50;15.51;79.88
64874;HTU21D;51367;45.204;38.576;2023-05-07T13:33:18;15.51;79.31
64874;HTU21D;51367;45.204;38.576;2023-05-07T13:35:44;15.51;80.83
64874;HTU21D;51367;45.204;38.576;2023-05-07T13:38:10;15.47;80.30
64874;HTU21D;51367;45.204;38.576;2023-05-07T13:40:36;15.47;80.42
64874;HTU21D;51367;45.204;38.576;2023-05-07T13:43:02;15.49;81.39
64874;HTU21D;51367;45.204;38.576;2023-05-07T13:45:28;15.49;81.43
64874;HTU21D;51367;45.204;38.576;2023-05-07T13:47:57;15.51;80.95
64874;HTU21D;51367;45.204;38.576;2023-05-07T13:50:24;15.51;81.59
64874;HTU21D;51367;45.204;38.576;2023-05-07T13:52:50;15.51;81.60
64874;HTU21D;51367;45.204;38.576;2023-05-07T13:55:19;15.49;81.57
64874;HTU21D;51367;45.204;38.576;2023-05-07T13:57:46;15.52;80.91
64874;HTU21D;51367;45.204;38.576;2023-05-07T14:00:13;15.51;81.30
64874;HTU21D;51367;45.204;38.576;2023-05-07T14:02:42;15.52;81.43
64874;HTU21D;51367;45.204;38.576;2023-05-07T14:05:09;15.52;81.91
64874;HTU21D;51367;45.204;38.576;2023-05-07T14:07:35;15.48;81.20
64874;HTU21D;51367;45.204;38.576;2023-05-07T14:10:01;15.49;80.81
64874;HTU21D;51367;45.204;38.576;2023-05-07T14:12:28;15.52;81.23
64874;HTU21D;51367;45.204;38.576;2023-05-07T14:14:54;15.53;82.05
64874;HTU21D;51367;45.204;38.576;2023-05-07T14:17:20;15.55;82.29
64874;HTU21D;51367;45.204;38.576;2023-05-07T14:19:48;15.53;81.68
64874;HTU21D;51367;45.204;38.576;2023-05-07T14:22:14;15.52;81.30
64874;HTU21D;51367;45.204;38.576;2023-05-07T14:24:41;15.51;81.27
64874;HTU21D;51367;45.204;38.576;2023-05-07T14:27:06;15.49;81.32
64874;HTU21D;51367;45.204;38.576;2023-05-07T14:29:33;15.46;81.89
64874;HTU21D;51367;45.204;38.576;2023-05-07T14:32:01;15.44;81.68
64874;HTU21D;51367;45.204;38.576;2023-05-07T14:34:27;15.42;81.27
64874;HTU21D;51367;45.204;38.576;2023-05-07T14:36:53;15.38;81.67
64874;HTU21D;51367;45.204;38.576;2023-05-07T14:39:19;15.34;82.09
64874;HTU21D;51367;45.204;38.576;2023-05-07T14:41:45;15.33;82.12
64874;HTU21D;51367;45.204;38.576;2023-05-07T14:44:11;15.33;82.00
64874;HTU21D;51367;45.204;38.576;2023-05-07T14:46:37;15.33;82.08
64874;HTU21D;51367;45.204;38.576;2023-05-07T14:49:03;15.34;81.72
64874;HTU21D;51367;45.204;38.576;2023-05-07T14:51:29;15.36;82.33
64874;HTU21D;51367;45.204;38.576;2023-05-07T14:53:55;15.34;81.79
64874;HTU21D;51367;45.204;38.576;2023-05-07T14:56:21;15.36;81.84
64874;HTU21D;51367;45.204;38.576;2023-05-07T14:58:47;15.36;81.91
64874;HTU21D;51367;45.204;38.576;2023-05-07T15:01:16;15.33;81.99
64874;HTU21D;51367;45.204;38.576;2023-05-07T15:03:42;15.31;82.20
64874;HTU21D;51367;45.204;38.576;2023-05-07T15:06:08;15.28;81.97
64874;HTU21D;51367;45.204;38.576;2023-05-07T15:08:34;15.27;81.58
64874;HTU21D;51367;45.204;38.576;2023-05-07T15:10:59;15.27;81.59
64874;HTU21D;51367;45.204;38.576;2023-05-07T15:13:25;15.24;81.30
64874;HTU21D;51367;45.204;38.576;2023-05-07T15:15:51;15.23;81.63
64874;HTU21D;51367;45.204;38.576;2023-05-07T15:18:17;15.19;81.78
64874;HTU21D;51367;45.204;38.576;2023-05-07T15:20:43;15.17;81.69